DFOL weather

Loumana Airport
Loumana, Comoe, Burkina Faso

Public forecast

Using degrees Celsius for public forecast. Weather courtesy of forecast.io.

Closest aviation weather report (METAR) to Loumana Airport

Report is more than 6 hours old.

Closest report is Sikasso Airport, 50.4 nm (93.4 km) NNW. Retrieved 2020/06/30 16:15 UTC (7 days ago):

GASK 301615Z 22008KT 9000 -RA SCT030 32/23 Q1011

Closest aviation forecast (TAF) to Loumana Airport

Closest forecast is Bobo Dioulasso Airport, 69.8 nm (129.4 km) ENE. Retrieved 2020/07/07 12:00 UTC (52 minutes ago):

TAF DFOO 071100Z 0712/0812 22008KT 9999 SCT020 TEMPO 0716/0724 4000 TSRA BKN020 SCT030CB